Time;durP1;ratioP1;P1;durP2;ratioP2;P2;SDS_P1;SDS_P2;PMS_P1;PMS_P2;Temp;Humidity;BMP_temperature;BMP_pressure;BME280_temperature;BME280_humidity;BME280_pressure;Samples;Min_cycle;Max_cycle;Signal;HPM_P1;HPM_P2
2022/03/14 00:00:25;;;;;;;16.00;12.32;;;8.40;99.90;;;;;;5028205;28;20590;-79
2022/03/14 00:02:51;;;;;;;16.52;12.68;;;8.40;99.90;;;;;;5034286;28;20168;-78
2022/03/14 00:05:17;;;;;;;15.52;12.27;;;8.40;99.90;;;;;;5035464;28;20032;-79
2022/03/14 00:07:47;;;;;;;15.77;12.40;;;8.40;99.90;;;;;;5017932;28;20444;-78
2022/03/14 00:10:17;;;;;;;18.08;12.27;;;8.50;99.90;;;;;;5032815;28;20616;-78
2022/03/14 00:12:44;;;;;;;17.25;12.32;;;8.50;99.90;;;;;;5016195;28;20341;-79
2022/03/14 00:15:17;;;;;;;15.38;11.90;;;8.60;99.90;;;;;;5019755;28;20037;-78
2022/03/14 00:17:45;;;;;;;15.60;11.57;;;8.70;99.90;;;;;;5021628;28;20040;-78
2022/03/14 00:20:13;;;;;;;16.23;12.10;;;8.70;99.90;;;;;;5014771;28;20041;-78
2022/03/14 00:22:40;;;;;;;16.30;11.65;;;8.80;99.90;;;;;;5035602;28;20048;-78
2022/03/14 00:25:11;;;;;;;15.52;12.00;;;8.80;99.90;;;;;;5019616;28;20076;-78
2022/03/14 00:27:37;;;;;;;15.23;11.95;;;8.80;99.90;;;;;;5031336;28;20037;-78
2022/03/14 00:30:11;;;;;;;14.85;11.02;;;8.90;99.90;;;;;;5016164;28;20122;-78
2022/03/14 00:32:40;;;;;;;14.13;11.18;;;8.90;99.90;;;;;;5021877;28;20063;-78
2022/03/14 00:35:07;;;;;;;15.57;10.50;;;9.00;99.90;;;;;;5017931;28;20125;-78
2022/03/14 00:37:38;;;;;;;16.10;10.93;;;9.00;1.00;;;;;;5019151;28;20037;-78
2022/03/14 00:40:10;;;;;;;14.07;10.10;;;9.10;1.00;;;;;;5017310;28;20254;-78
2022/03/14 00:42:36;;;;;;;15.77;10.50;;;9.10;1.00;;;;;;5034974;28;20611;-78
2022/03/14 00:45:03;;;;;;;13.77;10.65;;;9.20;1.00;;;;;;5020176;28;20033;-78
2022/03/14 00:47:29;;;;;;;14.18;10.27;;;9.30;3.40;;;;;;5017724;28;20060;-79
2022/03/14 00:49:55;;;;;;;14.55;10.35;;;9.20;1.00;;;;;;5034932;28;20041;-78
2022/03/14 00:52:21;;;;;;;13.52;9.60;;;9.30;19.30;;;;;;5036613;28;20397;-78
2022/03/14 00:54:47;;;;;;;14.23;10.07;;;9.40;82.20;;;;;;5017823;28;20121;-78
2022/03/14 00:57:14;;;;;;;12.20;9.90;;;9.40;99.90;;;;;;5033431;28;20643;-79
2022/03/14 00:59:43;;;;;;;13.32;8.73;;;9.50;99.90;;;;;;5018535;28;20052;-78
2022/03/14 01:02:12;;;;;;;12.70;8.82;;;9.50;99.90;;;;;;5017509;28;20037;-79
2022/03/14 01:04:38;;;;;;;11.88;8.98;;;9.60;99.90;;;;;;5033671;28;20203;-78
2022/03/14 01:07:04;;;;;;;11.18;8.63;;;9.70;99.90;;;;;;5018046;28;20033;-78
2022/03/14 01:09:30;;;;;;;11.23;8.82;;;9.80;99.90;;;;;;5014099;28;20056;-78
2022/03/14 01:11:59;;;;;;;13.18;8.68;;;9.80;99.90;;;;;;5027675;28;20094;-78
2022/03/14 01:14:25;;;;;;;10.18;8.18;;;9.80;97.40;;;;;;5034194;28;20037;-78
2022/03/14 01:16:52;;;;;;;11.40;9.20;;;9.80;99.90;;;;;;5027179;28;20458;-79
2022/03/14 01:19:19;;;;;;;12.07;8.63;;;9.90;99.90;;;;;;5017326;28;20137;-78
2022/03/14 01:21:47;;;;;;;11.30;8.68;;;9.90;99.90;;;;;;5017157;28;20527;-78
2022/03/14 01:24:13;;;;;;;12.55;9.15;;;9.90;99.90;;;;;;5017351;28;20487;-79
2022/03/14 01:26:39;;;;;;;11.57;8.27;;;9.90;99.90;;;;;;5017605;28;20037;-79
2022/03/14 01:29:08;;;;;;;12.02;8.73;;;9.80;99.90;;;;;;5035657;28;20044;-78
2022/03/14 01:31:34;;;;;;;10.75;8.77;;;9.80;99.90;;;;;;5016639;28;20162;-79
2022/03/14 01:34:00;;;;;;;11.13;9.40;;;9.80;99.90;;;;;;5032130;28;20124;-79
2022/03/14 01:36:26;;;;;;;13.25;8.57;;;9.80;99.90;;;;;;5033885;28;20524;-79
2022/03/14 01:38:51;;;;;;;10.98;8.88;;;9.90;99.90;;;;;;5034063;28;20488;-78
2022/03/14 01:41:18;;;;;;;10.98;9.00;;;9.80;99.90;;;;;;5011250;28;20447;-79
2022/03/14 01:43:47;;;;;;;10.90;8.45;;;9.80;99.90;;;;;;5029181;28;20427;-79
2022/03/14 01:46:16;;;;;;;10.82;8.35;;;9.70;99.90;;;;;;5016865;28;20037;-79
2022/03/14 01:48:45;;;;;;;10.32;8.52;;;9.70;99.90;;;;;;5014123;28;20196;-78
2022/03/14 01:51:16;;;;;;;11.27;8.80;;;9.70;99.90;;;;;;5031166;28;20048;-78
2022/03/14 01:53:45;;;;;;;10.52;8.73;;;9.70;99.90;;;;;;5014784;28;20048;-79
2022/03/14 01:56:12;;;;;;;9.88;8.50;;;9.60;99.90;;;;;;5015454;28;20072;-78
2022/03/14 01:58:39;;;;;;;10.85;8.65;;;9.60;99.90;;;;;;5018309;28;20048;-78
2022/03/14 02:01:08;;;;;;;11.32;8.52;;;9.60;99.90;;;;;;5013309;28;20054;-79
2022/03/14 02:03:34;;;;;;;10.13;8.98;;;9.50;99.90;;;;;;5030409;28;20045;-78
2022/03/14 02:05:59;;;;;;;12.00;9.80;;;9.50;99.90;;;;;;5033270;28;20036;-78
2022/03/14 02:08:28;;;;;;;12.38;9.70;;;9.50;99.90;;;;;;5027972;28;20040;-79
2022/03/14 02:10:54;;;;;;;10.52;8.95;;;9.40;99.90;;;;;;5016139;28;20569;-79
2022/03/14 02:13:23;;;;;;;10.60;8.68;;;9.50;99.90;;;;;;5016476;28;20033;-78
2022/03/14 02:15:48;;;;;;;11.88;8.93;;;9.40;99.90;;;;;;5032586;28;20476;-78
2022/03/14 02:18:14;;;;;;;11.73;9.57;;;9.40;99.90;;;;;;5019448;28;20086;-79
2022/03/14 02:20:40;;;;;;;10.00;8.55;;;9.40;99.90;;;;;;5016842;28;20373;-78
2022/03/14 02:23:06;;;;;;;11.30;9.05;;;9.40;99.90;;;;;;5017151;28;20075;-78
2022/03/14 02:25:35;;;;;;;10.63;8.82;;;9.40;99.90;;;;;;5031828;28;20036;-78
2022/03/14 02:28:03;;;;;;;11.90;8.90;;;9.40;99.90;;;;;;5031490;28;20086;-78
2022/03/14 02:30:29;;;;;;;10.30;8.65;;;9.40;99.90;;;;;;5012553;28;20076;-79
2022/03/14 02:33:01;;;;;;;11.15;8.43;;;9.40;99.90;;;;;;5014322;28;20033;-78
2022/03/14 02:35:29;;;;;;;10.35;8.07;;;9.40;99.90;;;;;;5047035;28;20532;-78
2022/03/14 02:37:55;;;;;;;10.30;8.20;;;9.40;99.90;;;;;;5017209;28;20479;-78
2022/03/14 02:40:21;;;;;;;11.23;8.57;;;9.40;99.90;;;;;;5032973;28;20095;-78
2022/03/14 02:42:47;;;;;;;11.07;8.88;;;9.40;99.90;;;;;;5017455;28;20033;-78
2022/03/14 02:45:15;;;;;;;10.40;8.32;;;9.40;99.90;;;;;;5029775;28;20048;-78
2022/03/14 02:47:41;;;;;;;10.70;8.50;;;9.40;99.90;;;;;;5017925;28;20041;-79
2022/03/14 02:50:07;;;;;;;9.60;8.18;;;9.40;99.90;;;;;;5015054;28;20124;-78
2022/03/14 02:52:33;;;;;;;10.63;8.13;;;9.40;99.90;;;;;;5034958;28;20343;-78
2022/03/14 02:54:59;;;;;;;9.77;8.15;;;9.40;99.90;;;;;;5017709;28;20469;-79
2022/03/14 02:57:25;;;;;;;9.88;7.82;;;9.40;99.90;;;;;;5032305;28;20866;-79
2022/03/14 02:59:50;;;;;;;11.23;8.40;;;9.40;99.90;;;;;;5015293;28;20470;-77
2022/03/14 03:02:18;;;;;;;11.52;8.38;;;9.30;99.90;;;;;;5033332;28;20045;-78
2022/03/14 03:04:44;;;;;;;10.13;8.30;;;9.30;99.90;;;;;;5031499;28;20037;-79
2022/03/14 03:07:09;;;;;;;10.18;8.20;;;9.30;1.00;;;;;;5033123;28;20040;-78
2022/03/14 03:09:35;;;;;;;9.35;7.75;;;9.40;1.00;;;;;;5017276;28;20032;-79
2022/03/14 03:12:04;;;;;;;9.10;7.50;;;9.40;99.90;;;;;;5016360;28;20275;-78
2022/03/14 03:14:30;;;;;;;8.80;7.28;;;9.30;1.00;;;;;;5016105;28;20345;-79
2022/03/14 03:16:56;;;;;;;10.32;7.25;;;9.40;1.00;;;;;;5033775;28;20037;-79
2022/03/14 03:19:21;;;;;;;11.85;7.65;;;9.30;1.00;;;;;;5036045;28;20047;-78
2022/03/14 03:21:47;;;;;;;10.43;7.30;;;9.40;1.00;;;;;;5037046;28;20391;-79
2022/03/14 03:24:15;;;;;;;11.30;7.47;;;9.40;1.00;;;;;;5021390;28;20033;-79
2022/03/14 03:26:43;;;;;;;12.10;7.45;;;9.40;1.00;;;;;;5036327;28;20045;-78
2022/03/14 03:29:10;;;;;;;10.48;6.90;;;9.40;1.00;;;;;;5020746;28;20135;-79
2022/03/14 03:31:36;;;;;;;7.85;6.43;;;9.30;1.00;;;;;;5037486;28;20116;-79
2022/03/14 03:34:02;;;;;;;9.40;7.05;;;9.40;1.00;;;;;;5037712;28;20178;-79
2022/03/14 03:36:36;;;;;;;10.13;7.13;;;9.30;1.00;;;;;;5015606;28;20133;-79
2022/03/14 03:39:08;;;;;;;8.38;6.90;;;9.30;1.00;;;;;;5036515;28;20205;-79
2022/03/14 03:41:34;;;;;;;8.63;6.68;;;9.20;1.00;;;;;;5019445;28;20049;-79
2022/03/14 03:43:59;;;;;;;8.90;6.90;;;9.20;1.00;;;;;;5032089;28;20463;-78
2022/03/14 03:46:25;;;;;;;8.55;6.80;;;9.20;13.80;;;;;;5031823;28;20037;-78
2022/03/14 03:48:53;;;;;;;7.93;6.50;;;9.20;35.20;;;;;;5015779;28;20053;-78
2022/03/14 03:51:19;;;;;;;8.32;6.35;;;9.10;92.70;;;;;;5020240;28;20077;-79
2022/03/14 03:53:44;;;;;;;9.48;5.95;;;9.10;92.90;;;;;;5034239;28;20036;-79
2022/03/14 03:56:10;;;;;;;8.98;6.25;;;9.10;99.90;;;;;;5019990;28;20479;-78
2022/03/14 03:58:36;;;;;;;7.30;5.55;;;9.10;99.90;;;;;;5019213;28;20040;-79
2022/03/14 04:01:02;;;;;;;7.07;5.85;;;9.10;99.90;;;;;;5017470;28;20497;-78
2022/03/14 04:03:31;;;;;;;6.28;5.20;;;9.10;99.90;;;;;;5035467;28;20045;-79
2022/03/14 04:06:00;;;;;;;6.68;5.70;;;9.10;99.90;;;;;;5033257;28;20029;-79
2022/03/14 04:08:30;;;;;;;7.03;5.53;;;9.20;99.90;;;;;;5035899;28;20113;-79
2022/03/14 04:10:59;;;;;;;6.65;5.20;;;9.20;99.90;;;;;;5049905;28;20386;-78
2022/03/14 04:13:28;;;;;;;6.68;5.35;;;9.20;99.90;;;;;;5021886;28;20040;-78
2022/03/14 04:15:55;;;;;;;6.03;5.43;;;9.30;99.90;;;;;;5034037;28;20055;-79
2022/03/14 04:18:24;;;;;;;5.57;4.78;;;9.30;99.90;;;;;;5017466;28;20030;-78
2022/03/14 04:20:55;;;;;;;5.65;4.93;;;9.30;99.90;;;;;;5018977;28;20045;-79
2022/03/14 04:23:21;;;;;;;6.00;5.20;;;9.30;99.90;;;;;;5032789;28;20463;-78
2022/03/14 04:25:47;;;;;;;7.13;5.05;;;9.30;99.90;;;;;;5016755;28;20728;-79
2022/03/14 04:28:14;;;;;;;6.72;4.55;;;9.30;99.90;;;;;;5020207;28;20041;-78
2022/03/14 04:30:40;;;;;;;7.97;5.00;;;9.20;99.90;;;;;;5034578;28;20040;-78
2022/03/14 04:33:07;;;;;;;6.07;4.78;;;9.20;99.90;;;;;;5032806;28;20672;-79
2022/03/14 04:35:39;;;;;;;5.97;4.97;;;9.30;99.90;;;;;;5018209;28;20492;-79
2022/03/14 04:38:16;;;;;;;6.20;4.97;;;9.20;99.90;;;;;;5034891;28;20444;-79
2022/03/14 04:40:42;;;;;;;6.10;4.45;;;9.20;99.90;;;;;;5018207;28;20036;-79
2022/03/14 04:43:11;;;;;;;5.88;4.38;;;9.20;99.90;;;;;;5018581;28;20047;-79
2022/03/14 04:45:40;;;;;;;5.15;4.45;;;9.20;99.90;;;;;;5026845;28;20113;-79
2022/03/14 04:48:06;;;;;;;4.88;4.05;;;9.20;99.90;;;;;;5017449;28;20041;-78
2022/03/14 04:50:35;;;;;;;5.40;4.50;;;9.20;99.90;;;;;;5035744;28;20368;-79
2022/03/14 04:53:00;;;;;;;5.43;4.38;;;9.20;99.90;;;;;;5018381;28;20033;-79
2022/03/14 04:55:26;;;;;;;6.78;4.07;;;9.20;99.90;;;;;;5017199;28;20506;-79
2022/03/14 04:57:54;;;;;;;5.90;3.92;;;9.20;1.00;;;;;;5033774;28;20549;-79
2022/03/14 05:00:20;;;;;;;4.95;4.15;;;9.20;1.00;;;;;;5020577;28;20052;-79
2022/03/14 05:02:46;;;;;;;4.82;4.10;;;9.20;99.90;;;;;;5018673;28;20070;-79
2022/03/14 05:05:12;;;;;;;4.55;3.97;;;9.20;1.00;;;;;;5034934;28;20075;-79
2022/03/14 05:07:39;;;;;;;4.88;3.90;;;9.30;1.00;;;;;;5018752;28;20036;-79
2022/03/14 05:10:07;;;;;;;6.60;3.92;;;9.20;1.00;;;;;;5018096;28;20496;-79
2022/03/14 05:12:34;;;;;;;5.32;4.28;;;9.30;1.00;;;;;;5030738;28;20063;-79
2022/03/14 05:15:02;;;;;;;5.03;4.05;;;9.20;1.00;;;;;;5036746;28;20508;-79
2022/03/14 05:17:30;;;;;;;4.72;4.07;;;9.30;1.00;;;;;;5019239;28;20051;-79
2022/03/14 05:19:57;;;;;;;4.53;3.85;;;9.30;1.00;;;;;;5033038;28;20492;-79
2022/03/14 05:22:23;;;;;;;5.18;3.88;;;9.30;1.00;;;;;;5018375;28;20025;-79
2022/03/14 05:24:49;;;;;;;4.78;4.07;;;9.30;1.00;;;;;;5034162;28;20647;-79
2022/03/14 05:27:15;;;;;;;4.50;3.83;;;9.30;1.00;;;;;;5016758;28;20106;-79
2022/03/14 05:29:43;;;;;;;5.70;3.75;;;9.40;1.00;;;;;;5030719;28;20504;-79
2022/03/14 05:32:09;;;;;;;4.50;4.00;;;9.40;1.00;;;;;;5016666;28;20056;-79
2022/03/14 05:34:35;;;;;;;6.38;4.00;;;9.40;1.00;;;;;;5033142;28;20054;-79
2022/03/14 05:37:02;;;;;;;4.18;3.78;;;9.40;1.00;;;;;;5033540;28;20049;-79
2022/03/14 05:39:30;;;;;;;4.45;3.78;;;9.40;1.00;;;;;;5025351;28;20336;-79
2022/03/14 05:41:56;;;;;;;4.65;3.90;;;9.40;28.80;;;;;;5029551;28;20064;-79
2022/03/14 05:44:21;;;;;;;4.78;3.95;;;9.40;1.00;;;;;;5034337;28;20847;-79
2022/03/14 05:46:47;;;;;;;4.93;3.80;;;9.40;20.40;;;;;;5016485;28;20552;-78
2022/03/14 05:49:19;;;;;;;4.53;4.13;;;9.40;29.50;;;;;;5033804;28;20635;-78
2022/03/14 05:51:48;;;;;;;4.85;3.90;;;9.40;48.40;;;;;;5016440;28;20114;-79
2022/03/14 05:54:14;;;;;;;5.00;4.18;;;9.40;84.00;;;;;;5033549;28;20045;-79
2022/03/14 05:56:44;;;;;;;4.43;3.70;;;9.40;99.90;;;;;;5013287;28;20140;-79
2022/03/14 05:59:15;;;;;;;6.07;4.07;;;9.40;99.90;;;;;;5013877;28;20436;-79
2022/03/14 06:01:42;;;;;;;4.65;4.18;;;9.40;99.90;;;;;;5016235;28;20029;-79
2022/03/14 06:04:08;;;;;;;4.93;4.13;;;9.40;99.90;;;;;;5019275;28;20044;-78
2022/03/14 06:06:34;;;;;;;4.97;4.40;;;9.40;99.90;;;;;;5033433;28;20420;-79
2022/03/14 06:09:00;;;;;;;5.18;4.25;;;9.40;99.90;;;;;;5017320;28;20140;-79
2022/03/14 06:11:27;;;;;;;5.07;4.25;;;9.30;99.90;;;;;;5029304;28;20544;-79
2022/03/14 06:13:58;;;;;;;4.88;4.38;;;9.40;99.90;;;;;;5018751;28;20059;-79
2022/03/14 06:16:25;;;;;;;7.50;4.40;;;9.30;99.90;;;;;;5016664;28;20120;-79
2022/03/14 06:18:51;;;;;;;4.50;4.10;;;9.30;99.90;;;;;;5032541;28;20049;-79
2022/03/14 06:21:18;;;;;;;6.80;4.20;;;9.30;99.90;;;;;;5030675;28;20038;-79
2022/03/14 06:23:46;;;;;;;5.72;4.57;;;9.30;99.90;;;;;;5018045;28;20072;-79
2022/03/14 06:26:13;;;;;;;5.35;4.57;;;9.30;99.90;;;;;;5032276;28;20370;-79
2022/03/14 06:28:38;;;;;;;5.53;4.53;;;9.30;99.90;;;;;;5017918;28;20108;-79
2022/03/14 06:31:04;;;;;;;6.22;4.78;;;9.40;99.90;;;;;;5019965;28;20092;-79
2022/03/14 06:33:30;;;;;;;5.88;5.07;;;9.30;99.90;;;;;;5027333;28;20041;-79
2022/03/14 06:35:55;;;;;;;5.80;5.07;;;9.30;99.90;;;;;;5032379;28;20513;-79
2022/03/14 06:38:21;;;;;;;7.57;4.65;;;9.30;99.90;;;;;;5016757;28;20037;-78
2022/03/14 06:40:47;;;;;;;5.57;4.78;;;9.30;99.90;;;;;;5032481;28;20124;-79
2022/03/14 06:43:17;;;;;;;6.18;4.70;;;9.30;99.90;;;;;;5025890;28;20499;-79
2022/03/14 06:45:47;;;;;;;7.30;5.10;;;9.30;99.90;;;;;;5019282;28;20568;-79
2022/03/14 06:48:13;;;;;;;6.75;4.95;;;9.30;99.90;;;;;;5017141;28;20080;-79
2022/03/14 06:50:38;;;;;;;6.28;5.05;;;9.30;99.90;;;;;;5035540;28;20787;-79
2022/03/14 06:53:07;;;;;;;7.60;4.88;;;9.30;99.90;;;;;;5025212;28;20045;-79
2022/03/14 06:55:35;;;;;;;6.93;5.10;;;9.30;99.90;;;;;;5021128;28;20131;-79
2022/03/14 06:58:01;;;;;;;6.47;5.00;;;9.30;99.90;;;;;;5034948;28;20411;-79
2022/03/14 07:00:27;;;;;;;6.35;4.82;;;9.30;99.90;;;;;;5020857;28;20040;-79
2022/03/14 07:02:53;;;;;;;6.30;5.30;;;9.20;99.90;;;;;;5033076;28;20433;-79
2022/03/14 07:05:20;;;;;;;7.38;5.18;;;9.30;99.90;;;;;;5021783;28;20039;-79
2022/03/14 07:07:48;;;;;;;7.38;5.55;;;9.30;99.90;;;;;;5018599;28;20399;-79
2022/03/14 07:10:14;;;;;;;6.75;5.10;;;9.30;99.90;;;;;;5035481;28;20041;-79
2022/03/14 07:12:48;;;;;;;6.82;5.43;;;9.30;99.90;;;;;;5021830;28;20066;-79
2022/03/14 07:15:26;;;;;;;7.97;5.20;;;9.30;99.90;;;;;;5038307;28;20051;-79
2022/03/14 07:17:56;;;;;;;6.95;5.72;;;9.30;99.90;;;;;;5035685;28;20049;-79
2022/03/14 07:20:23;;;;;;;9.15;5.25;;;9.30;99.90;;;;;;5028447;28;20153;-79
2022/03/14 07:23:00;;;;;;;6.28;5.40;;;9.30;99.90;;;;;;5037439;28;20751;-79
2022/03/14 07:25:37;;;;;;;6.70;5.45;;;9.30;99.90;;;;;;5014716;28;20048;-79
2022/03/14 07:28:07;;;;;;;6.63;5.65;;;9.30;99.90;;;;;;5019291;28;20108;-79
2022/03/14 07:30:38;;;;;;;7.57;5.85;;;9.30;99.90;;;;;;5013172;28;20099;-79
2022/03/14 07:33:04;;;;;;;6.47;5.40;;;9.40;99.90;;;;;;5017711;28;20041;-79
2022/03/14 07:35:30;;;;;;;7.00;5.65;;;9.30;99.90;;;;;;5019313;28;20047;-79
2022/03/14 07:37:56;;;;;;;7.82;5.90;;;9.30;99.90;;;;;;5019922;28;20047;-79
2022/03/14 07:40:32;;;;;;;7.00;5.90;;;9.40;99.90;;;;;;5015463;28;20072;-79
2022/03/14 07:43:01;;;;;;;9.75;6.30;;;9.30;99.90;;;;;;5033931;28;20108;-79
2022/03/14 07:45:30;;;;;;;8.50;6.20;;;9.40;99.90;;;;;;5035771;28;20201;-79
2022/03/14 07:47:59;;;;;;;7.13;6.05;;;9.30;99.90;;;;;;5018785;28;20091;-79
2022/03/14 07:50:29;;;;;;;7.90;6.28;;;9.30;99.90;;;;;;5016348;28;20467;-79
2022/03/14 07:52:58;;;;;;;8.80;6.63;;;9.30;99.90;;;;;;5020543;28;20477;-79
2022/03/14 07:55:24;;;;;;;9.02;5.95;;;9.40;99.90;;;;;;5027706;28;20107;-79
2022/03/14 07:57:50;;;;;;;7.05;6.28;;;9.30;99.90;;;;;;5036627;28;20452;-80
2022/03/14 08:00:18;;;;;;;9.45;6.80;;;9.30;99.90;;;;;;5028013;28;20137;-79
2022/03/14 08:02:47;;;;;;;9.55;6.78;;;9.40;99.90;;;;;;5033087;28;20033;-79
2022/03/14 08:05:17;;;;;;;8.93;7.40;;;9.30;99.90;;;;;;5041743;28;20037;-79
2022/03/14 08:07:47;;;;;;;9.90;6.90;;;9.30;99.90;;;;;;5020792;28;20029;-79
2022/03/14 08:10:17;;;;;;;8.70;6.55;;;9.30;99.90;;;;;;5021695;28;20044;-79
2022/03/14 08:12:56;;;;;;;7.53;6.38;;;9.40;99.90;;;;;;5015213;28;20063;-79
2022/03/14 08:15:22;;;;;;;8.00;6.47;;;9.40;99.90;;;;;;5020361;28;20045;-79
2022/03/14 08:17:49;;;;;;;9.98;6.70;;;9.40;99.90;;;;;;5034723;28;20296;-79
2022/03/14 08:20:19;;;;;;;9.70;6.82;;;9.50;99.90;;;;;;5021928;28;20044;-79
2022/03/14 08:22:45;;;;;;;8.20;6.68;;;9.50;99.90;;;;;;5021397;28;20048;-79
2022/03/14 08:25:11;;;;;;;8.40;6.15;;;9.60;99.90;;;;;;5035836;28;20523;-79
2022/03/14 08:27:41;;;;;;;8.60;6.47;;;9.60;99.90;;;;;;5019752;28;20499;-79
2022/03/14 08:30:16;;;;;;;7.20;6.47;;;9.60;99.90;;;;;;5020164;28;20046;-79
2022/03/14 08:32:44;;;;;;;7.75;6.18;;;9.70;99.90;;;;;;5012667;28;20047;-79
2022/03/14 08:35:20;;;;;;;8.80;6.97;;;9.70;99.90;;;;;;5035173;28;20582;-79
2022/03/14 08:37:54;;;;;;;8.35;6.63;;;9.70;99.90;;;;;;5019128;28;20149;-79
2022/03/14 08:40:29;;;;;;;9.10;6.60;;;9.80;99.90;;;;;;5032691;28;20045;-79
2022/03/14 08:42:59;;;;;;;7.65;6.75;;;9.90;99.90;;;;;;5036111;28;20439;-80
2022/03/14 08:45:25;;;;;;;8.05;6.40;;;9.90;99.90;;;;;;5018269;28;20080;-79
2022/03/14 08:47:54;;;;;;;11.10;7.60;;;9.90;99.90;;;;;;5020690;28;20118;-79
2022/03/14 08:50:22;;;;;;;7.95;6.88;;;10.00;99.90;;;;;;5031948;28;20052;-79
2022/03/14 08:52:48;;;;;;;8.45;6.57;;;10.00;99.90;;;;;;5035097;28;20406;-79
2022/03/14 08:55:14;;;;;;;8.30;7.32;;;10.00;99.90;;;;;;5030151;28;20476;-79
2022/03/14 08:57:49;;;;;;;9.07;7.10;;;10.00;99.90;;;;;;5011018;28;20041;-79
2022/03/14 09:00:18;;;;;;;7.80;6.70;;;10.00;99.90;;;;;;5019814;28;20075;-79
2022/03/14 09:02:47;;;;;;;11.38;8.02;;;10.00;99.90;;;;;;5019412;28;20412;-79
2022/03/14 09:05:13;;;;;;;9.43;7.95;;;10.00;99.90;;;;;;5035625;28;20029;-79
2022/03/14 09:07:39;;;;;;;9.05;8.05;;;10.00;99.90;;;;;;5014170;28;20029;-79
2022/03/14 09:10:07;;;;;;;9.48;8.43;;;10.00;99.90;;;;;;5020582;28;20249;-79
2022/03/14 09:12:37;;;;;;;10.65;9.18;;;10.00;99.90;;;;;;5033980;28;20142;-79
2022/03/14 09:15:09;;;;;;;10.35;8.50;;;10.00;99.90;;;;;;5027265;28;20052;-80
2022/03/14 09:18:05;;;;;;;14.02;9.55;;;9.90;99.90;;;;;;5015269;28;20472;-80
2022/03/14 09:20:38;;;;;;;10.32;9.23;;;10.00;99.90;;;;;;5018354;28;20110;-79
2022/03/14 09:23:04;;;;;;;11.82;9.98;;;10.10;99.90;;;;;;5035766;28;20045;-79
2022/03/14 09:25:33;;;;;;;12.32;10.10;;;10.10;99.90;;;;;;5015939;28;20547;-80
2022/03/14 09:27:59;;;;;;;13.63;11.10;;;10.20;99.90;;;;;;5016765;28;20180;-79
2022/03/14 09:30:26;;;;;;;12.35;10.05;;;10.20;99.90;;;;;;5033816;28;20621;-79
2022/03/14 09:32:57;;;;;;;11.30;10.10;;;10.20;99.90;;;;;;5031431;28;20326;-79
2022/03/14 09:35:30;;;;;;;12.25;10.80;;;10.20;99.90;;;;;;5020201;28;20519;-79
2022/03/14 09:37:56;;;;;;;11.38;10.27;;;10.20;99.90;;;;;;5032238;28;20067;-80
2022/03/14 09:40:26;;;;;;;12.93;10.77;;;10.20;99.90;;;;;;5018258;28;20112;-79
2022/03/14 09:42:55;;;;;;;12.27;10.15;;;10.30;99.90;;;;;;5020409;28;20033;-79
2022/03/14 09:45:23;;;;;;;12.57;10.98;;;10.30;99.90;;;;;;5011093;28;20047;-80
2022/03/14 09:47:55;;;;;;;12.73;10.43;;;10.20;99.90;;;;;;5019882;28;20060;-80
2022/03/14 09:50:31;;;;;;;12.38;10.73;;;10.20;99.90;;;;;;5014810;28;20353;-79
2022/03/14 09:53:06;;;;;;;13.48;11.10;;;10.10;99.90;;;;;;5032915;28;20068;-80
2022/03/14 09:55:43;;;;;;;16.52;13.15;;;10.10;99.90;;;;;;5030968;28;20136;-79
2022/03/14 09:58:17;;;;;;;20.63;14.93;;;10.10;99.90;;;;;;5023972;28;20617;-79
2022/03/14 10:00:43;;;;;;;19.97;16.27;;;10.00;99.90;;;;;;5019007;28;20041;-79
2022/03/14 10:03:16;;;;;;;22.98;17.27;;;9.90;99.90;;;;;;5019212;28;20044;-79
2022/03/14 10:05:48;;;;;;;23.33;17.10;;;9.80;99.90;;;;;;5017863;28;20029;-79
2022/03/14 10:08:22;;;;;;;22.45;17.60;;;9.80;99.90;;;;;;5018024;28;20122;-79
2022/03/14 10:10:50;;;;;;;17.02;12.90;;;9.70;99.90;;;;;;5011515;28;20045;-79
2022/03/14 10:13:16;;;;;;;14.70;10.95;;;9.60;99.90;;;;;;5014329;28;20411;-79
2022/03/14 10:15:42;;;;;;;13.65;10.27;;;9.40;99.90;;;;;;5013777;28;20041;-79
2022/03/14 10:18:15;;;;;;;15.90;10.35;;;9.30;99.90;;;;;;5012394;28;20044;-79
2022/03/14 10:21:01;;;;;;;12.95;8.55;;;9.30;99.90;;;;;;5014954;28;20049;-79
2022/03/14 10:23:49;;;;;;;16.85;9.55;;;9.30;99.90;;;;;;5020006;28;20045;-79
2022/03/14 10:26:30;;;;;;;17.40;10.38;;;9.30;99.90;;;;;;5054611;28;20102;-79
2022/03/14 10:28:57;;;;;;;14.60;9.60;;;9.30;99.90;;;;;;5036158;28;20574;-79
2022/03/14 10:31:45;;;;;;;16.60;11.43;;;9.30;99.90;;;;;;5031359;28;20057;-79
2022/03/14 10:34:19;;;;;;;19.08;11.70;;;9.30;99.90;;;;;;5034254;28;20056;-79
2022/03/14 10:36:46;;;;;;;18.10;11.98;;;9.40;99.90;;;;;;5037273;28;20467;-79
2022/03/14 10:39:16;;;;;;;19.13;11.88;;;9.40;99.90;;;;;;5028379;28;20181;-79
2022/03/14 10:42:07;;;;;;;19.20;12.05;;;9.50;99.90;;;;;;5023539;28;20098;-79
2022/03/14 10:44:47;;;;;;;17.73;12.20;;;9.60;99.90;;;;;;5017354;28;20415;-79
2022/03/14 10:47:16;;;;;;;22.00;13.63;;;9.60;99.90;;;;;;5036065;28;20037;-79
2022/03/14 10:49:45;;;;;;;22.80;12.82;;;9.70;99.90;;;;;;5024380;28;20045;-80
2022/03/14 10:52:22;;;;;;;21.73;13.18;;;9.80;99.90;;;;;;5022983;28;20383;-79
2022/03/14 10:54:52;;;;;;;20.30;12.85;;;9.90;99.90;;;;;;5018213;28;20042;-79
2022/03/14 10:57:25;;;;;;;19.88;12.93;;;10.00;99.90;;;;;;5018576;28;20044;-79
2022/03/14 10:59:56;;;;;;;19.63;12.25;;;10.00;99.90;;;;;;5025136;28;20137;-79
2022/03/14 11:02:35;;;;;;;19.90;12.20;;;10.00;99.90;;;;;;5028154;28;20124;-80
2022/03/14 11:05:05;;;;;;;21.38;12.18;;;10.20;99.90;;;;;;5015586;28;20056;-80
2022/03/14 11:07:35;;;;;;;20.73;12.90;;;10.20;99.90;;;;;;5018617;28;20044;-79
2022/03/14 11:10:07;;;;;;;20.75;12.60;;;10.40;99.90;;;;;;5017949;28;20046;-80
2022/03/14 11:12:38;;;;;;;20.65;12.65;;;10.50;99.90;;;;;;5027652;28;20033;-79
2022/03/14 11:15:13;;;;;;;21.05;12.52;;;10.50;99.90;;;;;;5021441;28;20088;-80
2022/03/14 11:17:43;;;;;;;17.63;10.90;;;10.50;99.90;;;;;;5035164;28;20120;-79
2022/03/14 11:20:14;;;;;;;21.17;12.07;;;10.50;99.90;;;;;;5016908;28;20176;-80
2022/03/14 11:22:44;;;;;;;17.55;10.98;;;10.50;99.90;;;;;;5035901;28;20098;-79
2022/03/14 11:25:11;;;;;;;17.73;10.98;;;10.50;99.90;;;;;;5019844;28;20150;-79
2022/03/14 11:27:37;;;;;;;18.50;11.32;;;10.40;99.90;;;;;;5017617;28;20138;-80
2022/03/14 11:30:08;;;;;;;19.38;11.05;;;10.40;99.90;;;;;;5019944;28;20043;-80
2022/03/14 11:32:36;;;;;;;17.98;10.77;;;10.40;99.90;;;;;;5016885;28;20045;-79
2022/03/14 11:35:06;;;;;;;16.75;10.48;;;10.40;99.90;;;;;;5035840;28;20051;-80
2022/03/14 11:37:35;;;;;;;17.70;11.30;;;10.40;99.90;;;;;;5019054;28;20048;-80
2022/03/14 11:40:07;;;;;;;19.73;10.52;;;10.40;99.90;;;;;;5016683;28;20041;-80
2022/03/14 11:42:33;;;;;;;17.85;9.07;;;10.30;99.90;;;;;;5028993;28;20392;-80
2022/03/14 11:45:03;;;;;;;20.50;9.45;;;10.30;99.90;;;;;;5021971;28;20578;-79
2022/03/14 11:47:31;;;;;;;16.70;9.20;;;10.30;99.90;;;;;;5022123;28;20064;-79
2022/03/14 11:50:06;;;;;;;16.50;8.93;;;10.30;99.90;;;;;;5033055;28;20484;-80
2022/03/14 11:52:42;;;;;;;15.02;9.05;;;10.40;99.90;;;;;;5017544;28;20048;-80
2022/03/14 11:55:23;;;;;;;13.55;8.18;;;10.40;99.90;;;;;;5034694;28;20041;-80
2022/03/14 11:57:49;;;;;;;16.13;8.63;;;10.40;99.90;;;;;;5031088;28;20072;-79
2022/03/14 12:00:33;;;;;;;17.42;8.50;;;10.40;99.90;;;;;;5016392;28;20548;-79
2022/03/14 12:03:07;;;;;;;14.75;8.63;;;10.40;99.90;;;;;;5019317;28;20638;-80
2022/03/14 12:05:32;;;;;;;18.95;8.93;;;10.40;99.90;;;;;;5034963;28;20106;-79
2022/03/14 12:07:59;;;;;;;15.57;8.50;;;10.30;99.90;;;;;;5037571;28;20465;-80
2022/03/14 12:10:37;;;;;;;15.80;8.65;;;10.40;99.90;;;;;;5021587;28;20055;-80
2022/03/14 12:13:06;;;;;;;20.83;9.27;;;10.30;99.90;;;;;;5018580;28;20033;-79
2022/03/14 12:15:42;;;;;;;15.90;9.35;;;10.40;99.90;;;;;;5020139;28;20468;-80
2022/03/14 12:18:29;;;;;;;17.70;9.55;;;10.40;99.90;;;;;;5033648;28;20093;-80
2022/03/14 12:20:58;;;;;;;20.65;10.70;;;10.40;99.90;;;;;;5034666;28;20045;-80
2022/03/14 12:23:32;;;;;;;21.75;10.95;;;10.40;99.90;;;;;;5033622;28;20029;-80
2022/03/14 12:26:21;;;;;;;20.20;12.10;;;10.40;99.90;;;;;;5018159;28;20186;-80
2022/03/14 12:28:47;;;;;;;24.85;12.15;;;10.50;99.90;;;;;;5034920;28;20044;-80
2022/03/14 12:31:19;;;;;;;20.02;12.05;;;10.40;99.90;;;;;;5019271;28;20063;-80
2022/03/14 12:33:49;;;;;;;23.70;12.50;;;10.50;99.90;;;;;;5032010;28;20403;-80
2022/03/14 12:36:27;;;;;;;24.90;13.23;;;10.60;99.90;;;;;;5019826;28;20044;-80
2022/03/14 12:39:21;;;;;;;23.65;13.88;;;10.80;99.90;;;;;;5035259;28;20380;-80
2022/03/14 12:41:50;;;;;;;22.05;13.02;;;10.80;99.90;;;;;;5026856;28;20041;-79
2022/03/14 12:44:24;;;;;;;23.40;13.23;;;11.00;99.90;;;;;;5021600;28;20416;-80
2022/03/14 12:46:56;;;;;;;24.65;13.18;;;11.00;99.90;;;;;;5017711;28;20112;-80
2022/03/14 12:49:40;;;;;;;21.70;14.10;;;11.00;99.90;;;;;;5025154;28;20157;-80
2022/03/14 12:52:14;;;;;;;23.48;14.05;;;11.00;99.90;;;;;;5035736;28;20040;-80
2022/03/14 12:54:45;;;;;;;21.13;13.40;;;11.00;99.90;;;;;;5035310;28;20059;-80
2022/03/14 12:57:17;;;;;;;22.30;14.13;;;11.10;99.90;;;;;;5032725;28;20041;-80